Time;durP1;ratioP1;P1;durP2;ratioP2;P2;SDS_P1;SDS_P2;PMS_P1;PMS_P2;Temp;Humidity;BMP_temperature;BMP_pressure;BME280_temperature;BME280_humidity;BME280_pressure;Samples;Min_cycle;Max_cycle;Signal;HPM_P1;HPM_P2
2022/02/21 00:00:35;;;;;;;20.38;4.88;;;6.70;98.50;;;;;;5037952;28;25057;-72
2022/02/21 00:03:01;;;;;;;19.20;3.55;;;6.70;97.70;;;;;;5020279;28;25055;-74
2022/02/21 00:05:27;;;;;;;26.95;4.70;;;6.70;98.00;;;;;;5035034;28;25061;-75
2022/02/21 00:07:52;;;;;;;12.85;3.47;;;6.80;97.10;;;;;;5018530;28;25120;-72
2022/02/21 00:10:18;;;;;;;21.85;4.53;;;6.70;97.80;;;;;;4994742;28;25061;-76
2022/02/21 00:12:45;;;;;;;28.42;4.10;;;6.70;98.90;;;;;;5015332;28;25077;-74
2022/02/21 00:15:15;;;;;;;22.55;4.75;;;6.60;99.50;;;;;;5003904;28;25079;-76
2022/02/21 00:17:41;;;;;;;19.98;4.53;;;6.60;98.90;;;;;;5016556;28;25059;-74
2022/02/21 00:20:07;;;;;;;21.98;5.88;;;6.60;99.40;;;;;;5011560;28;25072;-73
2022/02/21 00:22:33;;;;;;;19.00;4.78;;;6.50;99.20;;;;;;5009322;28;25071;-74
2022/02/21 00:24:58;;;;;;;21.75;4.32;;;6.50;98.90;;;;;;5009006;28;25084;-75
2022/02/21 00:27:24;;;;;;;29.50;4.57;;;6.40;99.00;;;;;;4991161;28;25071;-73
2022/02/21 00:29:49;;;;;;;24.40;4.10;;;6.40;98.50;;;;;;4992790;28;25091;-73
2022/02/21 00:32:16;;;;;;;30.23;4.28;;;6.50;97.80;;;;;;4993485;28;25067;-71
2022/02/21 00:34:41;;;;;;;18.05;3.70;;;6.50;98.00;;;;;;4993692;28;25094;-74
2022/02/21 00:37:07;;;;;;;25.35;4.80;;;6.50;98.20;;;;;;5010341;28;25164;-74
2022/02/21 00:39:32;;;;;;;21.85;4.55;;;6.40;97.90;;;;;;5007024;28;25073;-73
2022/02/21 00:41:58;;;;;;;22.40;4.57;;;6.50;97.90;;;;;;5009600;28;25083;-74
2022/02/21 00:44:24;;;;;;;23.35;4.65;;;6.50;98.50;;;;;;5008242;28;25140;-73
2022/02/21 00:46:49;;;;;;;28.65;5.82;;;6.40;98.70;;;;;;5008464;28;25063;-76
2022/02/21 00:49:15;;;;;;;21.38;4.22;;;6.40;98.20;;;;;;5007614;28;25078;-75
2022/02/21 00:51:41;;;;;;;23.13;5.30;;;6.50;98.60;;;;;;5007024;28;25077;-74
2022/02/21 00:54:06;;;;;;;36.17;7.88;;;6.50;98.30;;;;;;5007337;28;25088;-75
2022/02/21 00:56:32;;;;;;;25.95;5.63;;;6.50;98.80;;;;;;5007626;28;25165;-74
2022/02/21 00:58:57;;;;;;;16.90;4.18;;;6.50;96.90;;;;;;5008580;28;25120;-75
2022/02/21 01:01:23;;;;;;;28.52;5.85;;;6.50;97.20;;;;;;5008526;28;25060;-76
2022/02/21 01:03:48;;;;;;;14.95;3.90;;;6.40;97.90;;;;;;5008429;28;25107;-72
2022/02/21 01:06:17;;;;;;;27.23;4.75;;;6.30;97.90;;;;;;5007989;28;25068;-74
2022/02/21 01:08:44;;;;;;;25.23;4.03;;;6.40;97.90;;;;;;5008442;28;25124;-74
2022/02/21 01:11:11;;;;;;;20.15;3.88;;;6.40;97.80;;;;;;5008880;28;25072;-71
2022/02/21 01:13:37;;;;;;;22.25;4.95;;;6.30;97.20;;;;;;5009143;28;25108;-73
2022/02/21 01:16:03;;;;;;;22.20;4.28;;;6.30;97.10;;;;;;5009167;28;25112;-73
2022/02/21 01:18:29;;;;;;;25.67;4.40;;;6.30;97.50;;;;;;5015352;28;25050;-75
2022/02/21 01:20:54;;;;;;;24.58;5.53;;;6.20;97.70;;;;;;5007554;28;25066;-75
2022/02/21 01:23:20;;;;;;;24.90;5.13;;;6.10;98.30;;;;;;5006801;28;25076;-72
2022/02/21 01:25:45;;;;;;;28.02;5.68;;;6.00;98.70;;;;;;5007099;28;25068;-74
2022/02/21 01:28:11;;;;;;;32.85;4.80;;;6.10;98.40;;;;;;5008010;28;25053;-75
2022/02/21 01:30:37;;;;;;;17.85;3.90;;;6.00;98.00;;;;;;4991064;28;25117;-72
2022/02/21 01:33:02;;;;;;;28.35;4.03;;;6.00;97.90;;;;;;5007958;28;25081;-73
2022/02/21 01:35:28;;;;;;;19.52;4.10;;;6.00;97.90;;;;;;5007629;28;25157;-73
2022/02/21 01:37:53;;;;;;;27.30;5.43;;;6.00;97.70;;;;;;5004075;28;25064;-74
2022/02/21 01:40:21;;;;;;;34.17;4.95;;;6.00;97.90;;;;;;5004312;28;25056;-71
2022/02/21 01:42:47;;;;;;;23.10;3.60;;;6.00;97.60;;;;;;5006481;28;25052;-73
2022/02/21 01:45:12;;;;;;;25.00;4.55;;;6.00;98.00;;;;;;5007119;28;25077;-72
2022/02/21 01:47:38;;;;;;;19.38;3.65;;;6.00;98.10;;;;;;5006659;28;25112;-74
2022/02/21 01:50:04;;;;;;;23.27;4.30;;;6.00;98.30;;;;;;5007476;28;25078;-74
2022/02/21 01:52:30;;;;;;;21.95;4.85;;;6.00;97.10;;;;;;5007718;28;25133;-73
2022/02/21 01:54:57;;;;;;;26.60;4.32;;;6.10;95.60;;;;;;5007286;28;25074;-71
2022/02/21 01:57:25;;;;;;;16.35;3.88;;;6.00;96.40;;;;;;5008552;28;25148;-73
2022/02/21 01:59:51;;;;;;;20.10;4.28;;;5.90;96.10;;;;;;5007944;28;25090;-74
2022/02/21 02:02:16;;;;;;;23.02;4.32;;;5.90;94.60;;;;;;5007441;28;25115;-72
2022/02/21 02:04:42;;;;;;;22.65;4.28;;;5.90;94.30;;;;;;5006579;28;25102;-73
2022/02/21 02:07:11;;;;;;;14.32;3.50;;;6.00;93.60;;;;;;5006544;28;25100;-74
2022/02/21 02:09:37;;;;;;;23.95;4.00;;;6.00;93.30;;;;;;4989300;28;25093;-72
2022/02/21 02:12:04;;;;;;;23.27;4.60;;;6.10;93.10;;;;;;4990784;28;25105;-72
2022/02/21 02:14:35;;;;;;;18.23;3.67;;;6.00;94.30;;;;;;5006499;28;25168;-72
2022/02/21 02:17:12;;;;;;;26.05;4.82;;;6.00;95.20;;;;;;4989435;28;25053;-72
2022/02/21 02:19:39;;;;;;;21.10;4.47;;;6.00;95.10;;;;;;5007519;28;25065;-73
2022/02/21 02:22:19;;;;;;;21.08;3.65;;;6.00;95.20;;;;;;4999306;28;25105;-74
2022/02/21 02:24:47;;;;;;;23.02;4.85;;;6.10;94.20;;;;;;5004990;28;25066;-72
2022/02/21 02:27:15;;;;;;;21.77;4.15;;;6.00;94.50;;;;;;4988911;28;25072;-73
2022/02/21 02:29:43;;;;;;;19.90;4.60;;;6.00;95.10;;;;;;5006900;28;25131;-72
2022/02/21 02:32:10;;;;;;;23.13;4.80;;;6.00;95.70;;;;;;4993785;28;25063;-73
2022/02/21 02:34:40;;;;;;;19.83;3.40;;;6.00;95.40;;;;;;5015243;28;25149;-74
2022/02/21 02:37:06;;;;;;;15.70;3.78;;;6.00;95.40;;;;;;5015431;28;25178;-72
2022/02/21 02:39:32;;;;;;;16.25;4.90;;;6.00;94.30;;;;;;5016267;28;25091;-72
2022/02/21 02:41:58;;;;;;;26.38;4.85;;;6.10;93.10;;;;;;5018295;28;25079;-74
2022/02/21 02:44:23;;;;;;;28.27;4.63;;;6.10;93.20;;;;;;5020958;28;25143;-72
2022/02/21 02:46:49;;;;;;;25.67;4.25;;;6.10;92.70;;;;;;5008742;28;25051;-72
2022/02/21 02:49:15;;;;;;;28.75;5.15;;;6.10;93.00;;;;;;5011110;28;25066;-71
2022/02/21 02:51:40;;;;;;;22.35;5.43;;;6.10;92.90;;;;;;4993127;28;25053;-72
2022/02/21 02:54:08;;;;;;;19.98;4.75;;;6.10;93.00;;;;;;5010182;28;25077;-75
2022/02/21 02:56:34;;;;;;;18.23;4.35;;;6.10;92.60;;;;;;5010594;28;25144;-73
2022/02/21 02:59:00;;;;;;;23.15;4.55;;;6.10;92.70;;;;;;5011115;28;25108;-71
2022/02/21 03:01:25;;;;;;;28.20;5.57;;;6.10;93.10;;;;;;5010289;28;25107;-73
2022/02/21 03:03:51;;;;;;;23.20;5.28;;;6.00;93.10;;;;;;5001621;28;25095;-71
2022/02/21 03:06:17;;;;;;;26.77;4.95;;;6.10;93.00;;;;;;4990983;28;25064;-70
2022/02/21 03:08:43;;;;;;;35.78;4.78;;;6.10;92.60;;;;;;4990485;28;25141;-73
2022/02/21 03:11:08;;;;;;;23.67;4.07;;;6.10;92.60;;;;;;4973897;28;25091;-74
2022/02/21 03:13:34;;;;;;;30.45;5.13;;;6.00;92.70;;;;;;4990711;28;25112;-72
2022/02/21 03:15:59;;;;;;;20.50;4.75;;;6.00;92.80;;;;;;5002397;28;25079;-73
2022/02/21 03:18:25;;;;;;;28.65;4.78;;;6.00;92.80;;;;;;5010265;28;25060;-72
2022/02/21 03:20:50;;;;;;;26.63;4.90;;;6.10;92.00;;;;;;5010738;28;25061;-72
2022/02/21 03:23:16;;;;;;;28.35;5.20;;;6.10;91.70;;;;;;5011051;28;25056;-72
2022/02/21 03:25:42;;;;;;;31.02;4.47;;;6.00;92.40;;;;;;5010582;28;25063;-71
2022/02/21 03:28:08;;;;;;;23.42;4.68;;;6.00;92.10;;;;;;5002737;28;25064;-72
2022/02/21 03:30:33;;;;;;;24.20;6.10;;;6.00;92.00;;;;;;5009634;28;25064;-74
2022/02/21 03:33:01;;;;;;;29.13;5.93;;;6.10;90.90;;;;;;5008132;28;25112;-74
2022/02/21 03:35:27;;;;;;;25.13;5.60;;;6.10;91.50;;;;;;5009002;28;25066;-73
2022/02/21 03:37:53;;;;;;;25.60;4.38;;;6.10;91.40;;;;;;5010413;28;24834;-73
2022/02/21 03:40:19;;;;;;;26.58;5.00;;;6.10;92.00;;;;;;5010038;28;25078;-72
2022/02/21 03:42:44;;;;;;;20.17;4.03;;;6.00;91.20;;;;;;5003522;28;25142;-72
2022/02/21 03:45:10;;;;;;;19.98;5.43;;;6.00;91.60;;;;;;5011248;28;25114;-73
2022/02/21 03:47:36;;;;;;;25.80;4.90;;;6.00;91.50;;;;;;5007584;28;25059;-72
2022/02/21 03:50:02;;;;;;;29.60;5.15;;;6.00;92.30;;;;;;5002694;28;25090;-74
2022/02/21 03:52:28;;;;;;;18.05;4.82;;;6.00;92.70;;;;;;5009241;28;25080;-72
2022/02/21 03:54:53;;;;;;;19.95;3.55;;;5.90;92.80;;;;;;4995076;28;25075;-72
2022/02/21 03:57:19;;;;;;;18.10;4.10;;;5.90;92.30;;;;;;4989595;28;25068;-74
2022/02/21 03:59:44;;;;;;;21.33;4.07;;;5.90;91.60;;;;;;5001727;28;25078;-72
2022/02/21 04:02:10;;;;;;;27.02;5.53;;;5.90;92.30;;;;;;5008960;28;25111;-72
2022/02/21 04:04:36;;;;;;;19.15;3.72;;;5.90;91.90;;;;;;5008937;28;25084;-72
2022/02/21 04:07:01;;;;;;;18.55;3.90;;;5.90;92.30;;;;;;5009286;28;25127;-73
2022/02/21 04:09:27;;;;;;;30.23;3.80;;;5.90;91.80;;;;;;5009385;28;25068;-72
2022/02/21 04:11:52;;;;;;;22.55;4.95;;;5.90;92.50;;;;;;5008901;28;25071;-73
2022/02/21 04:14:18;;;;;;;24.70;4.10;;;5.80;92.70;;;;;;5008439;28;25072;-73
2022/02/21 04:16:43;;;;;;;24.75;4.50;;;5.80;93.10;;;;;;5007905;28;25053;-72
2022/02/21 04:19:09;;;;;;;22.00;4.05;;;5.70;92.90;;;;;;5008410;28;25094;-71
2022/02/21 04:21:38;;;;;;;24.20;4.38;;;5.70;93.00;;;;;;5008547;28;25084;-73
2022/02/21 04:24:04;;;;;;;24.27;5.15;;;5.70;93.50;;;;;;5008099;28;25073;-72
2022/02/21 04:26:30;;;;;;;21.33;4.85;;;5.60;93.90;;;;;;5008118;28;25055;-74
2022/02/21 04:28:55;;;;;;;24.70;4.93;;;5.50;94.20;;;;;;5008100;28;25080;-71
2022/02/21 04:31:21;;;;;;;32.08;4.75;;;5.60;93.40;;;;;;5008344;28;25068;-73
2022/02/21 04:33:47;;;;;;;20.92;4.07;;;5.60;93.20;;;;;;5008116;28;25081;-73
2022/02/21 04:36:14;;;;;;;21.25;4.10;;;5.60;93.10;;;;;;4990425;28;25067;-72
2022/02/21 04:38:40;;;;;;;23.10;4.43;;;5.60;93.00;;;;;;5008738;28;25098;-73
2022/02/21 04:41:06;;;;;;;16.67;4.47;;;5.60;93.40;;;;;;5004679;28;25110;-73
2022/02/21 04:43:31;;;;;;;24.77;5.40;;;5.60;93.40;;;;;;4995835;28;25060;-72
2022/02/21 04:45:57;;;;;;;25.45;4.45;;;5.60;93.80;;;;;;4995248;28;25067;-72
2022/02/21 04:48:23;;;;;;;21.77;4.30;;;5.50;93.50;;;;;;4986150;28;25055;-71
2022/02/21 04:50:49;;;;;;;22.67;4.25;;;5.60;93.50;;;;;;4999972;28;25062;-73
2022/02/21 04:53:15;;;;;;;27.08;4.78;;;5.50;93.60;;;;;;4994356;28;25122;-74
2022/02/21 04:55:41;;;;;;;26.30;6.60;;;5.50;93.60;;;;;;5000318;28;25109;-72
2022/02/21 04:58:07;;;;;;;20.27;4.32;;;5.50;93.80;;;;;;4995758;28;25165;-74
2022/02/21 05:00:32;;;;;;;22.75;4.00;;;5.50;93.40;;;;;;4993018;28;25052;-73
2022/02/21 05:02:58;;;;;;;25.25;4.70;;;5.60;93.40;;;;;;4992225;28;25134;-73
2022/02/21 05:05:24;;;;;;;23.10;3.70;;;5.60;93.10;;;;;;4992891;28;25156;-73
2022/02/21 05:07:49;;;;;;;25.60;5.22;;;5.60;93.30;;;;;;4995927;28;25066;-73
2022/02/21 05:10:15;;;;;;;20.40;4.90;;;5.60;93.60;;;;;;4974493;28;25066;-74
2022/02/21 05:12:41;;;;;;;29.02;5.10;;;5.70;93.10;;;;;;4998849;28;25184;-73
2022/02/21 05:15:09;;;;;;;18.58;4.20;;;5.70;93.00;;;;;;4993945;28;25134;-73
2022/02/21 05:17:34;;;;;;;19.73;4.28;;;5.70;92.70;;;;;;4996438;28;25106;-73
2022/02/21 05:20:00;;;;;;;25.48;5.18;;;5.60;92.80;;;;;;4991955;28;25140;-74
2022/02/21 05:22:26;;;;;;;26.70;4.90;;;5.70;92.60;;;;;;4975633;28;25047;-72
2022/02/21 05:24:52;;;;;;;30.92;4.70;;;5.60;92.80;;;;;;4994485;28;25062;-70
2022/02/21 05:27:18;;;;;;;23.58;4.00;;;5.70;92.70;;;;;;4996195;28;25066;-72
2022/02/21 05:29:44;;;;;;;29.00;5.68;;;5.60;92.70;;;;;;4999613;28;25100;-72
2022/02/21 05:32:10;;;;;;;18.88;3.83;;;5.60;93.00;;;;;;5000709;28;25114;-73
2022/02/21 05:34:36;;;;;;;24.27;4.93;;;5.60;93.00;;;;;;4992406;28;25180;-72
2022/02/21 05:37:02;;;;;;;20.15;3.80;;;5.50;93.50;;;;;;5008100;28;25091;-73
2022/02/21 05:39:28;;;;;;;23.15;4.78;;;5.50;93.80;;;;;;5008503;28;25083;-75
2022/02/21 05:41:54;;;;;;;32.47;4.95;;;5.40;94.20;;;;;;5008044;28;25093;-74
2022/02/21 05:44:19;;;;;;;37.05;6.15;;;5.40;94.00;;;;;;5008384;28;25091;-73
2022/02/21 05:46:45;;;;;;;24.88;4.90;;;5.40;94.00;;;;;;5006426;28;25071;-73
2022/02/21 05:49:11;;;;;;;22.92;4.07;;;5.40;94.30;;;;;;5009491;28;25078;-72
2022/02/21 05:51:37;;;;;;;26.20;4.50;;;5.40;94.30;;;;;;5008689;28;25150;-76
2022/02/21 05:54:03;;;;;;;20.98;4.18;;;5.40;94.10;;;;;;5007383;28;25145;-71
2022/02/21 05:56:29;;;;;;;19.67;4.45;;;5.40;94.00;;;;;;5011770;28;25160;-73
2022/02/21 05:58:55;;;;;;;23.42;4.30;;;5.40;93.90;;;;;;5011365;28;25066;-73
2022/02/21 06:01:20;;;;;;;18.27;3.83;;;5.40;94.20;;;;;;5004399;28;25077;-72
2022/02/21 06:03:46;;;;;;;17.67;4.60;;;5.40;94.40;;;;;;5007463;28;25067;-73
2022/02/21 06:06:12;;;;;;;18.80;4.93;;;5.40;94.50;;;;;;5007577;28;25080;-71
2022/02/21 06:08:37;;;;;;;22.98;4.10;;;5.30;94.70;;;;;;5008224;28;25064;-73
2022/02/21 06:11:03;;;;;;;18.27;4.32;;;5.30;94.40;;;;;;5011557;28;25055;-73
2022/02/21 06:13:28;;;;;;;24.90;4.28;;;5.30;94.40;;;;;;4977394;28;25119;-72
2022/02/21 06:15:54;;;;;;;27.42;4.55;;;5.30;94.20;;;;;;4991916;28;25086;-73
2022/02/21 06:18:19;;;;;;;28.02;5.60;;;5.40;94.30;;;;;;5006145;28;25085;-70
2022/02/21 06:20:45;;;;;;;22.20;5.00;;;5.40;94.20;;;;;;5000647;28;25121;-73
2022/02/21 06:23:10;;;;;;;20.02;3.85;;;5.40;94.40;;;;;;5002038;28;25135;-72
2022/02/21 06:25:38;;;;;;;25.05;4.22;;;5.30;94.50;;;;;;4987292;28;25069;-73
2022/02/21 06:28:04;;;;;;;18.40;4.25;;;5.30;94.70;;;;;;4996745;28;25132;-75
2022/02/21 06:30:29;;;;;;;20.55;4.20;;;5.30;94.80;;;;;;5003244;28;25135;-72
2022/02/21 06:32:55;;;;;;;29.13;4.55;;;5.30;94.70;;;;;;5006044;28;25183;-72
2022/02/21 06:35:20;;;;;;;20.75;4.53;;;5.30;94.60;;;;;;4993268;28;25047;-73
2022/02/21 06:37:48;;;;;;;27.17;4.47;;;5.30;94.40;;;;;;5011523;28;25058;-72
2022/02/21 06:40:13;;;;;;;26.42;5.90;;;5.20;94.70;;;;;;5011543;28;25095;-72
2022/02/21 06:42:39;;;;;;;29.23;5.03;;;5.20;94.50;;;;;;5010019;28;25101;-71
2022/02/21 06:45:06;;;;;;;24.88;5.20;;;5.30;94.20;;;;;;5004356;28;25060;-72
2022/02/21 06:47:32;;;;;;;35.42;4.80;;;5.20;94.40;;;;;;5009269;28;25126;-71
2022/02/21 06:49:57;;;;;;;20.58;4.20;;;5.20;94.40;;;;;;5014377;28;25058;-73
2022/02/21 06:52:23;;;;;;;21.38;5.00;;;5.20;94.60;;;;;;5007532;28;25146;-71
2022/02/21 06:54:52;;;;;;;26.02;4.10;;;5.20;94.80;;;;;;5006151;28;25048;-72
2022/02/21 06:57:19;;;;;;;20.35;4.10;;;5.30;94.70;;;;;;5005322;28;25062;-73
2022/02/21 06:59:45;;;;;;;28.83;4.63;;;5.30;95.00;;;;;;5007630;28;25067;-72
2022/02/21 07:02:10;;;;;;;22.02;4.57;;;5.30;94.80;;;;;;5013360;28;25082;-73
2022/02/21 07:04:36;;;;;;;21.90;5.25;;;5.30;94.70;;;;;;5014073;28;25069;-72
2022/02/21 07:07:02;;;;;;;23.08;4.72;;;5.40;94.70;;;;;;5006318;28;25064;-73
2022/02/21 07:09:27;;;;;;;22.60;4.40;;;5.50;94.90;;;;;;5008088;28;25118;-73
2022/02/21 07:11:53;;;;;;;29.63;5.25;;;5.50;95.20;;;;;;5006211;28;25072;-71
2022/02/21 07:14:18;;;;;;;28.00;4.65;;;5.50;95.40;;;;;;5006152;28;25078;-75
2022/02/21 07:16:44;;;;;;;27.27;5.15;;;5.60;95.70;;;;;;5004804;28;25066;-72
2022/02/21 07:19:09;;;;;;;25.50;4.88;;;5.60;95.90;;;;;;5001940;28;25043;-73
2022/02/21 07:21:35;;;;;;;28.08;4.72;;;5.60;95.90;;;;;;4998081;28;25062;-73
2022/02/21 07:24:01;;;;;;;27.40;5.45;;;5.60;95.60;;;;;;5008306;28;25070;-74
2022/02/21 07:26:26;;;;;;;35.33;4.93;;;5.60;95.70;;;;;;5006682;28;25141;-72
2022/02/21 07:28:53;;;;;;;25.13;4.03;;;5.60;96.00;;;;;;4987921;28;25053;-72
2022/02/21 07:31:18;;;;;;;21.85;4.85;;;5.60;95.90;;;;;;5001489;28;25170;-73
2022/02/21 07:33:44;;;;;;;25.05;4.63;;;5.60;95.80;;;;;;5012774;28;25068;-73
2022/02/21 07:36:09;;;;;;;24.30;4.93;;;5.60;96.00;;;;;;4999788;28;25106;-72
2022/02/21 07:38:35;;;;;;;17.30;4.20;;;5.70;95.90;;;;;;4995749;28;25092;-74
2022/02/21 07:41:01;;;;;;;27.02;4.63;;;5.70;95.80;;;;;;5000664;28;25061;-74
2022/02/21 07:43:27;;;;;;;20.33;3.80;;;5.70;95.70;;;;;;5002740;28;25067;-74
2022/02/21 07:45:53;;;;;;;26.75;5.30;;;5.80;95.60;;;;;;4998614;28;25083;-76
2022/02/21 07:48:19;;;;;;;21.33;4.85;;;5.80;95.60;;;;;;4997919;28;25102;-72
2022/02/21 07:50:44;;;;;;;16.00;3.97;;;5.90;95.70;;;;;;5014843;28;25084;-74
2022/02/21 07:53:10;;;;;;;24.02;3.90;;;6.00;95.40;;;;;;5016186;28;25063;-73
2022/02/21 07:55:36;;;;;;;22.08;3.92;;;6.00;95.20;;;;;;5036272;28;25083;-73
2022/02/21 07:58:02;;;;;;;29.90;5.10;;;6.00;95.10;;;;;;5020384;28;25061;-72
2022/02/21 08:00:28;;;;;;;24.67;5.35;;;6.00;94.80;;;;;;5018531;28;25053;-77
2022/02/21 08:02:54;;;;;;;23.52;4.15;;;6.00;95.10;;;;;;5025488;28;25162;-73
2022/02/21 08:05:19;;;;;;;29.25;4.40;;;6.00;95.40;;;;;;4998566;28;25051;-73
2022/02/21 08:07:45;;;;;;;23.50;4.72;;;6.00;95.40;;;;;;5013994;28;25117;-73
2022/02/21 08:10:11;;;;;;;28.50;5.47;;;5.90;95.70;;;;;;5012856;28;25058;-72
2022/02/21 08:12:37;;;;;;;17.00;3.72;;;5.90;95.60;;;;;;4990843;28;25109;-74
2022/02/21 08:15:04;;;;;;;29.48;4.90;;;5.90;95.80;;;;;;5001927;28;25084;-74
2022/02/21 08:17:38;;;;;;;29.40;5.45;;;5.90;96.50;;;;;;4995346;28;25074;-73
2022/02/21 08:20:04;;;;;;;31.70;4.68;;;5.90;96.80;;;;;;4991344;28;25051;-73
2022/02/21 08:22:29;;;;;;;29.88;4.80;;;5.80;97.90;;;;;;4997549;28;25073;-71
2022/02/21 08:24:55;;;;;;;33.50;5.32;;;5.80;98.40;;;;;;5005817;28;25172;-72
2022/02/21 08:27:20;;;;;;;29.70;5.47;;;5.80;99.00;;;;;;4978956;28;25065;-74
2022/02/21 08:29:46;;;;;;;27.35;4.45;;;5.60;99.80;;;;;;5013983;28;25081;-73
2022/02/21 08:32:12;;;;;;;31.77;5.55;;;5.60;99.90;;;;;;5023817;28;25053;-72
2022/02/21 08:34:40;;;;;;;26.60;4.60;;;5.60;99.90;;;;;;5027817;28;25144;-71
2022/02/21 08:37:06;;;;;;;40.33;6.22;;;5.50;99.90;;;;;;5032019;28;25072;-72
2022/02/21 08:39:32;;;;;;;33.92;5.35;;;5.50;99.90;;;;;;5029063;28;25050;-73
2022/02/21 08:41:58;;;;;;;40.38;6.47;;;5.40;99.90;;;;;;5029075;28;25131;-74
2022/02/21 08:44:25;;;;;;;26.63;4.75;;;5.30;99.90;;;;;;5016321;28;25067;-74
2022/02/21 08:46:51;;;;;;;33.28;6.32;;;5.30;99.90;;;;;;5018632;28;25059;-77
2022/02/21 08:49:16;;;;;;;30.10;5.70;;;5.30;99.90;;;;;;5018451;28;25076;-76
2022/02/21 08:51:42;;;;;;;25.20;3.90;;;5.20;99.90;;;;;;5019409;28;25078;-75
2022/02/21 08:54:09;;;;;;;23.73;5.28;;;5.10;99.90;;;;;;5017440;28;25062;-75
2022/02/21 08:56:35;;;;;;;39.92;5.30;;;5.00;99.90;;;;;;5014653;28;25065;-74
2022/02/21 08:59:02;;;;;;;28.67;5.30;;;4.90;99.90;;;;;;5012813;28;25080;-75
2022/02/21 09:01:27;;;;;;;28.90;5.20;;;4.90;99.90;;;;;;5012486;28;25066;-76
2022/02/21 09:03:53;;;;;;;32.30;5.05;;;4.80;99.90;;;;;;4994889;28;25051;-76
2022/02/21 09:06:19;;;;;;;26.08;4.80;;;4.70;99.90;;;;;;5013298;28;25092;-74
2022/02/21 09:08:44;;;;;;;28.20;4.90;;;4.70;99.90;;;;;;5012943;28;25065;-78
2022/02/21 09:11:10;;;;;;;27.23;4.40;;;4.70;99.90;;;;;;5014288;28;25154;-74
2022/02/21 09:13:36;;;;;;;34.35;5.05;;;4.70;99.90;;;;;;5011676;28;25028;-74
2022/02/21 09:16:02;;;;;;;36.67;5.82;;;4.70;99.90;;;;;;5011636;28;25155;-76
2022/02/21 09:18:28;;;;;;;35.55;5.47;;;4.60;99.90;;;;;;5013228;28;25066;-74
2022/02/21 09:20:54;;;;;;;22.65;4.63;;;4.70;99.90;;;;;;5011172;28;25052;-76
2022/02/21 09:23:20;;;;;;;27.85;5.95;;;4.80;99.90;;;;;;5010654;28;25052;-73
2022/02/21 09:25:46;;;;;;;30.30;6.28;;;4.80;99.90;;;;;;5011797;28;25124;-72
2022/02/21 09:28:12;;;;;;;39.42;6.10;;;4.90;99.90;;;;;;5009994;28;25064;-76
2022/02/21 09:30:38;;;;;;;39.00;7.28;;;5.00;99.90;;;;;;5010195;28;25077;-76
2022/02/21 09:33:03;;;;;;;34.13;6.38;;;5.00;99.90;;;;;;5009334;28;25099;-74
2022/02/21 09:35:29;;;;;;;27.98;6.28;;;5.10;99.90;;;;;;5012089;28;25057;-73
2022/02/21 09:37:57;;;;;;;30.33;5.63;;;5.10;99.90;;;;;;5014621;28;25064;-72
2022/02/21 09:40:23;;;;;;;38.53;8.93;;;5.20;99.90;;;;;;5013269;28;25113;-75
2022/02/21 09:42:49;;;;;;;45.72;7.43;;;5.30;99.90;;;;;;4993532;28;25151;-76
2022/02/21 09:45:18;;;;;;;43.63;7.47;;;5.30;99.90;;;;;;4976776;28;25073;-74
2022/02/21 09:47:44;;;;;;;33.85;6.68;;;5.30;99.90;;;;;;4995218;28;25092;-76
2022/02/21 09:50:11;;;;;;;39.70;7.38;;;5.40;99.90;;;;;;5014033;28;25052;-76
2022/02/21 09:52:37;;;;;;;45.00;6.88;;;5.40;99.90;;;;;;5013345;28;25044;-73
2022/02/21 09:55:03;;;;;;;47.08;7.63;;;5.40;99.90;;;;;;5013560;28;25174;-72
2022/02/21 09:57:29;;;;;;;45.80;8.25;;;5.50;99.90;;;;;;5009950;28;25059;-73
2022/02/21 09:59:55;;;;;;;46.55;8.20;;;5.50;99.90;;;;;;4996368;28;25075;-76
2022/02/21 10:02:23;;;;;;;53.33;8.05;;;5.50;99.90;;;;;;5003471;28;25056;-74
2022/02/21 10:05:15;;;;;;;53.67;8.82;;;5.50;99.90;;;;;;5001528;28;25106;-75
2022/02/21 10:07:42;;;;;;;55.03;8.43;;;5.50;99.90;;;;;;4998057;28;25099;-75
2022/02/21 10:10:09;;;;;;;45.38;7.47;;;5.50;99.90;;;;;;4994951;28;25131;-74
2022/02/21 10:12:55;;;;;;;42.35;7.80;;;5.50;99.90;;;;;;4993969;28;25150;-75
2022/02/21 10:15:29;;;;;;;49.05;9.50;;;5.50;99.90;;;;;;4991569;28;25052;-73
2022/02/21 10:18:14;;;;;;;41.13;8.02;;;5.60;99.90;;;;;;4977247;28;25103;-73
2022/02/21 10:20:58;;;;;;;41.67;9.05;;;5.50;99.90;;;;;;4991710;28;25059;-74
2022/02/21 10:23:25;;;;;;;44.75;6.95;;;5.60;99.90;;;;;;4996413;28;25054;-74
2022/02/21 10:25:59;;;;;;;43.92;7.97;;;5.60;99.90;;;;;;4999968;28;25060;-74
2022/02/21 10:28:37;;;;;;;46.08;8.05;;;5.60;99.90;;;;;;4980863;28;25111;-73
2022/02/21 10:31:15;;;;;;;56.42;11.50;;;5.70;99.90;;;;;;4994977;28;25112;-72
2022/02/21 10:34:07;;;;;;;52.78;8.18;;;5.70;99.90;;;;;;4994042;28;25082;-75
2022/02/21 10:36:33;;;;;;;62.08;10.65;;;5.70;99.90;;;;;;5009935;28;25121;-74
2022/02/21 10:39:01;;;;;;;65.80;11.07;;;5.80;99.90;;;;;;5011700;28;25119;-72
2022/02/21 10:41:43;;;;;;;53.28;9.85;;;5.90;99.90;;;;;;5010806;28;25062;-74
2022/02/21 10:44:23;;;;;;;56.47;10.70;;;6.00;99.90;;;;;;5011642;28;25147;-71
2022/02/21 10:47:04;;;;;;;53.33;9.82;;;6.10;99.90;;;;;;5012455;28;25105;-74
2022/02/21 10:49:32;;;;;;;69.88;12.05;;;6.20;99.90;;;;;;5011953;28;25130;-74
2022/02/21 10:52:02;;;;;;;59.50;10.90;;;6.30;99.90;;;;;;5011995;28;25152;-74
2022/02/21 10:54:35;;;;;;;67.07;11.32;;;6.30;99.90;;;;;;5010614;28;25050;-73
2022/02/21 10:57:00;;;;;;;53.17;9.25;;;6.30;99.90;;;;;;4988813;28;25052;-71
2022/02/21 10:59:31;;;;;;;56.72;9.65;;;6.40;99.90;;;;;;4993415;28;25050;-73
2022/02/21 11:01:58;;;;;;;59.15;9.65;;;6.40;99.90;;;;;;4993678;28;25086;-73
2022/02/21 11:04:24;;;;;;;63.65;11.18;;;6.40;99.90;;;;;;5010950;28;25067;-73
2022/02/21 11:06:51;;;;;;;58.67;9.85;;;6.40;99.90;;;;;;5011318;28;25063;-72
2022/02/21 11:09:19;;;;;;;59.88;9.90;;;6.40;99.90;;;;;;5010426;28;25400;-72
2022/02/21 11:11:50;;;;;;;52.83;10.80;;;6.50;99.90;;;;;;5010599;28;25054;-74
2022/02/21 11:14:23;;;;;;;52.25;10.45;;;6.50;99.90;;;;;;5010313;28;25074;-70
2022/02/21 11:16:50;;;;;;;77.32;12.07;;;6.60;99.90;;;;;;5010270;28;25055;-74
2022/02/21 11:19:17;;;;;;;53.78;11.00;;;6.60;99.90;;;;;;5010894;28;25170;-75
2022/02/21 11:21:46;;;;;;;56.90;9.85;;;6.70;99.90;;;;;;5010430;28;25106;-72
2022/02/21 11:24:16;;;;;;;57.17;10.45;;;6.80;99.90;;;;;;5011936;28;25078;-72
2022/02/21 11:27:08;;;;;;;55.75;10.85;;;7.00;99.90;;;;;;5011659;28;25132;-71
2022/02/21 11:29:40;;;;;;;43.13;9.50;;;7.00;99.90;;;;;;5011871;28;25072;-73
2022/02/21 11:32:06;;;;;;;44.92;8.93;;;7.10;99.90;;;;;;5011218;28;25114;-74
2022/02/21 11:34:45;;;;;;;50.55;8.30;;;7.20;99.90;;;;;;4997742;28;25060;-74
2022/02/21 11:37:25;;;;;;;48.20;8.35;;;7.30;99.90;;;;;;5005763;28;25092;-73
2022/02/21 11:39:58;;;;;;;38.92;8.20;;;7.30;99.90;;;;;;5008386;28;25094;-74
2022/02/21 11:42:34;;;;;;;51.13;8.73;;;7.30;99.90;;;;;;5007543;28;25121;-75
2022/02/21 11:45:19;;;;;;;42.17;8.52;;;7.30;99.90;;;;;;5008861;28;25067;-74
2022/02/21 11:47:48;;;;;;;40.88;8.20;;;7.40;99.90;;;;;;4987766;28;25155;-74
2022/02/21 11:50:19;;;;;;;44.45;9.95;;;7.50;99.90;;;;;;4995602;28;25062;-74
2022/02/21 11:52:50;;;;;;;47.93;9.20;;;7.50;99.90;;;;;;4981609;28;25168;-72
2022/02/21 11:55:38;;;;;;;41.53;8.10;;;7.60;99.90;;;;;;4990360;28;25172;-74
2022/02/21 11:58:16;;;;;;;46.28;9.48;;;7.70;99.90;;;;;;4991539;28;25119;-73
2022/02/21 12:00:43;;;;;;;38.72;9.63;;;7.70;99.90;;;;;;5005689;28;25075;-72
2022/02/21 12:03:25;;;;;;;40.90;10.05;;;7.70;99.90;;;;;;5005595;28;25075;-72
2022/02/21 12:05:56;;;;;;;40.47;7.40;;;7.80;99.90;;;;;;5003664;28;25067;-73
2022/02/21 12:08:31;;;;;;;49.85;8.63;;;7.80;99.90;;;;;;4986029;28;25076;-72
2022/02/21 12:11:02;;;;;;;36.30;9.35;;;7.80;99.90;;;;;;4990548;28;25062;-71
2022/02/21 12:13:33;;;;;;;47.47;9.13;;;7.80;99.90;;;;;;4992132;28;25144;-73
2022/02/21 12:16:10;;;;;;;49.05;9.32;;;8.00;99.90;;;;;;4990663;28;25190;-73
2022/02/21 12:18:46;;;;;;;47.08;9.68;;;7.90;99.90;;;;;;4993598;28;25067;-73
2022/02/21 12:21:21;;;;;;;39.47;8.52;;;8.00;99.90;;;;;;4998506;28;25164;-73
2022/02/21 12:23:53;;;;;;;32.90;8.15;;;8.00;99.90;;;;;;4996187;28;25076;-72
2022/02/21 12:26:22;;;;;;;57.33;9.52;;;8.10;99.90;;;;;;5005322;28;25127;-74
2022/02/21 12:29:17;;;;;;;43.28;8.48;;;8.00;99.90;;;;;;4998424;28;25066;-70
2022/02/21 12:31:55;;;;;;;45.10;8.40;;;7.90;99.90;;;;;;4979861;28;25172;-76
2022/02/21 12:34:34;;;;;;;37.78;6.75;;;7.80;99.90;;;;;;5001328;28;25186;-74
2022/02/21 12:37:03;;;;;;;48.10;9.05;;;7.70;99.90;;;;;;5005520;28;25066;-73
2022/02/21 12:39:31;;;;;;;37.60;7.68;;;7.80;99.90;;;;;;4981816;28;25077;-72
2022/02/21 12:41:57;;;;;;;30.75;6.57;;;8.00;99.90;;;;;;4989603;28;25155;-75
2022/02/21 12:44:23;;;;;;;42.05;8.88;;;8.00;99.90;;;;;;4990339;28;25073;-75
2022/02/21 12:46:51;;;;;;;49.47;10.65;;;8.10;99.90;;;;;;4988659;28;25062;-73